Time;durP1;ratioP1;P1;durP2;ratioP2;P2;SDS_P1;SDS_P2;PMS_P1;PMS_P2;Temp;Humidity;BMP_temperature;BMP_pressure;BME280_temperature;BME280_humidity;BME280_pressure;Samples;Min_cycle;Max_cycle;Signal;HPM_P1;HPM_P2
2023/05/24 00:01:24;;;;;;;2.80;2.60;;;18.40;33.70;;;;;;10441377;28;21068;-75
2023/05/24 00:06:33;;;;;;;3.00;2.80;;;18.50;33.80;;;;;;10436091;28;20232;-74
2023/05/24 00:11:36;;;;;;;3.07;2.87;;;18.50;33.90;;;;;;10441866;28;20235;-74
2023/05/24 00:16:40;;;;;;;3.07;2.87;;;18.50;33.50;;;;;;10441180;28;20926;-75
2023/05/24 00:21:45;;;;;;;3.80;2.70;;;18.40;33.70;;;;;;10443729;28;20228;-75
2023/05/24 00:26:48;;;;;;;2.70;2.50;;;18.30;34.10;;;;;;10444355;28;20228;-73
2023/05/24 00:31:51;;;;;;;2.37;2.27;;;18.20;33.90;;;;;;10442102;28;20287;-74
2023/05/24 00:36:56;;;;;;;2.90;2.70;;;18.20;33.90;;;;;;10442798;28;20260;-74
2023/05/24 00:42:00;;;;;;;3.00;2.80;;;18.20;34.30;;;;;;10450346;28;20227;-75
2023/05/24 00:47:03;;;;;;;3.00;2.80;;;18.20;34.10;;;;;;10450561;28;21036;-74
2023/05/24 00:52:08;;;;;;;2.80;2.60;;;18.10;33.80;;;;;;10442594;28;20220;-74
2023/05/24 00:57:13;;;;;;;2.73;2.53;;;18.10;34.30;;;;;;10448931;28;20882;-74
2023/05/24 01:02:17;;;;;;;2.57;2.43;;;18.00;34.00;;;;;;10449232;28;20231;-74
2023/05/24 01:07:37;;;;;;;3.10;2.80;;;18.00;33.90;;;;;;10447319;28;20912;-75
2023/05/24 01:12:53;;;;;;;3.40;3.10;;;17.90;34.70;;;;;;10450335;28;20323;-75
2023/05/24 01:18:05;;;;;;;3.47;3.17;;;17.80;34.60;;;;;;10446509;28;20420;-74
2023/05/24 01:23:22;;;;;;;3.80;3.50;;;17.70;34.50;;;;;;10449317;28;20217;-75
2023/05/24 01:28:27;;;;;;;3.00;2.80;;;17.70;34.50;;;;;;10444917;28;20241;-74
2023/05/24 01:33:30;;;;;;;3.97;2.67;;;17.70;34.50;;;;;;10441607;28;20612;-75
2023/05/24 01:38:34;;;;;;;3.00;2.80;;;17.60;34.00;;;;;;10450370;28;20425;-74
2023/05/24 01:43:40;;;;;;;2.80;2.60;;;17.60;35.00;;;;;;10451027;28;20231;-75
2023/05/24 01:48:54;;;;;;;3.30;3.00;;;17.60;34.40;;;;;;10443397;28;20233;-74
2023/05/24 01:53:59;;;;;;;3.57;3.30;;;17.60;34.40;;;;;;10442122;28;20336;-74
2023/05/24 01:59:06;;;;;;;3.90;3.50;;;17.60;34.40;;;;;;10442824;28;20252;-74
2023/05/24 02:04:09;;;;;;;3.63;3.33;;;17.60;34.40;;;;;;10444001;28;20225;-75
2023/05/24 02:09:12;;;;;;;3.13;2.83;;;17.60;34.30;;;;;;10450712;28;20228;-74
2023/05/24 02:14:18;;;;;;;3.40;3.10;;;17.50;33.80;;;;;;10444427;28;20227;-74
2023/05/24 02:19:22;;;;;;;3.20;2.90;;;17.50;34.30;;;;;;10436436;28;20984;-74
2023/05/24 02:24:25;;;;;;;3.07;2.87;;;17.40;34.20;;;;;;10447067;28;20229;-74
2023/05/24 02:29:30;;;;;;;3.50;3.20;;;17.30;34.10;;;;;;10446721;28;20224;-74
2023/05/24 02:34:33;;;;;;;3.40;3.10;;;17.30;34.10;;;;;;10442205;28;20233;-75
2023/05/24 02:39:36;;;;;;;3.37;3.10;;;17.20;34.00;;;;;;10453746;28;20243;-74
2023/05/24 02:44:41;;;;;;;3.03;2.83;;;17.20;34.00;;;;;;10449358;28;20227;-74
2023/05/24 02:49:44;;;;;;;3.03;2.73;;;17.10;34.00;;;;;;10446968;28;20244;-74
2023/05/24 02:54:47;;;;;;;3.40;3.10;;;16.90;33.80;;;;;;10445607;28;20307;-74
2023/05/24 02:59:52;;;;;;;3.10;2.80;;;16.80;33.70;;;;;;10439995;28;20232;-74
2023/05/24 03:04:55;;;;;;;3.30;3.00;;;16.70;34.30;;;;;;10440923;28;20926;-75
2023/05/24 03:09:59;;;;;;;3.07;2.73;;;16.70;33.90;;;;;;10446397;28;20855;-75
2023/05/24 03:15:03;;;;;;;3.10;2.80;;;16.70;34.10;;;;;;10437680;28;20223;-74
2023/05/24 03:20:08;;;;;;;3.37;3.13;;;16.60;34.50;;;;;;10446122;28;20672;-74
2023/05/24 03:25:13;;;;;;;3.10;2.90;;;16.60;34.30;;;;;;10441104;28;20228;-74
2023/05/24 03:30:18;;;;;;;3.63;2.97;;;16.60;34.10;;;;;;10434643;28;20258;-74
2023/05/24 03:35:21;;;;;;;3.53;3.23;;;16.50;34.60;;;;;;10445351;28;22215;-74
2023/05/24 03:40:28;;;;;;;3.60;3.20;;;16.40;34.40;;;;;;10450590;28;20819;-74
2023/05/24 03:45:32;;;;;;;3.50;3.30;;;16.40;34.70;;;;;;10441208;28;20225;-74
2023/05/24 03:50:41;;;;;;;3.40;3.10;;;16.30;34.90;;;;;;10451308;28;20278;-74
2023/05/24 03:55:45;;;;;;;4.27;3.37;;;16.30;34.60;;;;;;10443243;28;20224;-74
2023/05/24 04:00:49;;;;;;;3.53;3.23;;;16.30;34.80;;;;;;10445551;28;20229;-74
2023/05/24 04:05:53;;;;;;;4.87;3.40;;;16.20;35.00;;;;;;10437998;28;20232;-75
2023/05/24 04:10:57;;;;;;;3.70;3.40;;;16.20;35.00;;;;;;10444322;28;20229;-74
2023/05/24 04:16:01;;;;;;;3.80;3.40;;;16.10;35.10;;;;;;10449206;28;20254;-74
2023/05/24 04:21:05;;;;;;;4.00;3.43;;;16.00;35.40;;;;;;10451876;28;20701;-74
2023/05/24 04:26:10;;;;;;;5.27;3.27;;;16.00;35.10;;;;;;10449934;28;20849;-74
2023/05/24 04:31:16;;;;;;;4.23;3.77;;;16.00;35.40;;;;;;10448786;28;20216;-74
2023/05/24 04:36:21;;;;;;;4.40;4.00;;;15.80;35.90;;;;;;10446671;28;20228;-75
2023/05/24 04:41:26;;;;;;;3.73;3.43;;;15.70;35.20;;;;;;10455315;28;20256;-74
2023/05/24 04:46:30;;;;;;;4.63;3.50;;;15.70;35.40;;;;;;10454324;28;20229;-74
2023/05/24 04:51:37;;;;;;;4.13;3.73;;;15.60;36.00;;;;;;10450581;28;20229;-74
2023/05/24 04:56:40;;;;;;;3.50;3.20;;;15.60;35.90;;;;;;10439201;28;20232;-74
2023/05/24 05:01:45;;;;;;;4.30;3.87;;;15.70;36.00;;;;;;10451462;28;20800;-75
2023/05/24 05:06:48;;;;;;;4.93;3.90;;;15.80;36.40;;;;;;10448475;28;20221;-74
2023/05/24 05:11:51;;;;;;;5.70;4.07;;;15.90;36.30;;;;;;10449812;28;20323;-74
2023/05/24 05:16:56;;;;;;;5.77;4.20;;;15.90;36.00;;;;;;10442790;28;20256;-74
2023/05/24 05:21:59;;;;;;;5.17;3.53;;;16.00;36.10;;;;;;10442149;28;20231;-73
2023/05/24 05:27:03;;;;;;;4.83;3.97;;;16.00;36.10;;;;;;10443299;28;20725;-73
2023/05/24 05:32:08;;;;;;;5.00;4.10;;;16.00;36.00;;;;;;10432313;28;20217;-74
2023/05/24 05:37:11;;;;;;;4.67;4.10;;;16.00;36.40;;;;;;10444570;28;20236;-73
2023/05/24 05:42:14;;;;;;;4.30;3.90;;;15.90;36.70;;;;;;10443265;28;20235;-73
2023/05/24 05:47:19;;;;;;;4.60;4.17;;;16.00;36.40;;;;;;10435963;28;20225;-73
2023/05/24 05:52:22;;;;;;;5.30;4.70;;;16.00;36.60;;;;;;10436056;28;20290;-74
2023/05/24 05:57:25;;;;;;;5.20;4.70;;;16.00;36.10;;;;;;10436099;28;20264;-74
2023/05/24 06:02:30;;;;;;;5.50;4.83;;;16.00;36.30;;;;;;10438662;28;20276;-74
2023/05/24 06:07:34;;;;;;;6.43;4.87;;;16.00;36.50;;;;;;10444206;28;20241;-74
2023/05/24 06:12:39;;;;;;;7.17;5.10;;;16.00;36.30;;;;;;10444350;28;20256;-74
2023/05/24 06:17:46;;;;;;;5.03;4.63;;;16.00;36.50;;;;;;10437733;28;20324;-74
2023/05/24 06:22:49;;;;;;;6.73;4.60;;;16.10;36.80;;;;;;10442985;28;20217;-74
2023/05/24 06:27:53;;;;;;;8.60;4.63;;;16.10;36.30;;;;;;10446861;28;20240;-74
2023/05/24 06:32:57;;;;;;;7.87;4.40;;;16.10;36.40;;;;;;10449075;28;20233;-74
2023/05/24 06:38:01;;;;;;;9.27;4.50;;;16.10;36.70;;;;;;10438363;28;20256;-74
2023/05/24 06:43:04;;;;;;;4.83;3.73;;;16.20;36.50;;;;;;10445016;28;20248;-74
2023/05/24 06:48:09;;;;;;;4.80;3.43;;;16.30;36.60;;;;;;10435409;28;20220;-73
2023/05/24 06:53:12;;;;;;;5.00;3.87;;;16.40;36.60;;;;;;10441804;28;20225;-74
2023/05/24 06:58:16;;;;;;;4.83;3.77;;;16.60;36.30;;;;;;10435704;28;20221;-73
2023/05/24 07:03:22;;;;;;;5.07;3.60;;;16.70;35.80;;;;;;10440444;28;20632;-73
2023/05/24 07:08:25;;;;;;;4.83;3.70;;;16.80;35.60;;;;;;10440271;28;20255;-73
2023/05/24 07:13:28;;;;;;;4.57;3.83;;;16.90;35.50;;;;;;10447882;28;20225;-73
2023/05/24 07:18:33;;;;;;;4.63;3.80;;;17.00;35.20;;;;;;10445537;28;20883;-73
2023/05/24 07:23:37;;;;;;;5.03;3.90;;;17.10;35.10;;;;;;10447710;28;20235;-73
2023/05/24 07:28:40;;;;;;;4.43;3.43;;;17.20;35.20;;;;;;10444120;28;20233;-73
2023/05/24 07:33:44;;;;;;;5.27;3.47;;;17.20;34.80;;;;;;10442028;28;21068;-73
2023/05/24 07:38:48;;;;;;;9.67;4.07;;;17.30;34.90;;;;;;10443276;28;20319;-73
2023/05/24 07:43:51;;;;;;;4.80;3.87;;;17.30;34.80;;;;;;10441216;28;20652;-73
2023/05/24 07:48:55;;;;;;;5.30;4.10;;;17.40;34.60;;;;;;10451992;28;20594;-73
2023/05/24 07:53:59;;;;;;;4.73;4.00;;;17.40;34.50;;;;;;10454385;28;20228;-73
2023/05/24 07:59:03;;;;;;;4.40;4.00;;;17.40;34.60;;;;;;10455706;28;20311;-73
2023/05/24 08:04:09;;;;;;;5.27;4.20;;;17.50;34.30;;;;;;10444241;28;20315;-72
2023/05/24 08:09:12;;;;;;;4.80;3.70;;;17.50;34.60;;;;;;10449399;28;20229;-72
2023/05/24 08:14:15;;;;;;;5.17;3.87;;;17.50;34.40;;;;;;10458353;28;20224;-73
2023/05/24 08:19:20;;;;;;;6.10;4.30;;;17.50;34.30;;;;;;10453990;28;20701;-72
2023/05/24 08:24:23;;;;;;;8.43;4.40;;;17.50;34.30;;;;;;10455035;28;20228;-73
2023/05/24 08:29:27;;;;;;;6.97;3.70;;;17.50;34.30;;;;;;10452612;28;20240;-73
2023/05/24 08:34:32;;;;;;;6.93;3.60;;;17.40;34.20;;;;;;10448806;28;20231;-73
2023/05/24 08:39:35;;;;;;;6.13;4.03;;;17.40;34.20;;;;;;10454933;28;20312;-73
2023/05/24 08:44:44;;;;;;;8.17;4.47;;;17.30;34.10;;;;;;10449768;28;20235;-73
2023/05/24 08:49:51;;;;;;;6.10;3.67;;;17.30;34.10;;;;;;10454570;28;20232;-73
2023/05/24 08:54:55;;;;;;;5.57;4.30;;;17.30;34.10;;;;;;10441218;28;21110;-72
2023/05/24 08:59:59;;;;;;;6.20;4.10;;;17.30;34.10;;;;;;10444869;28;20229;-73
2023/05/24 09:05:06;;;;;;;5.77;4.03;;;17.40;34.20;;;;;;10445877;28;20296;-73
2023/05/24 09:10:10;;;;;;;6.30;4.13;;;17.30;34.10;;;;;;10447096;28;20233;-73
2023/05/24 09:15:13;;;;;;;8.37;4.47;;;17.20;34.00;;;;;;10455927;28;20225;-73
2023/05/24 09:20:19;;;;;;;5.80;4.07;;;17.20;34.00;;;;;;10452330;28;20246;-73
2023/05/24 09:25:23;;;;;;;5.30;3.67;;;17.20;34.00;;;;;;10448144;28;20569;-73
2023/05/24 09:30:26;;;;;;;7.63;4.17;;;17.30;34.10;;;;;;10441314;28;20240;-73
2023/05/24 09:35:31;;;;;;;7.07;4.07;;;17.30;34.10;;;;;;10450540;28;20271;-73
2023/05/24 09:40:34;;;;;;;5.27;3.90;;;17.40;34.20;;;;;;10453945;28;20307;-73
2023/05/24 09:45:45;;;;;;;5.67;3.77;;;17.40;34.20;;;;;;10446337;28;20312;-73
2023/05/24 09:51:02;;;;;;;4.97;3.90;;;17.50;34.20;;;;;;10453605;28;20315;-73
2023/05/24 09:56:08;;;;;;;6.10;3.70;;;17.60;33.90;;;;;;10450539;28;20212;-73
2023/05/24 10:01:13;;;;;;;6.97;4.00;;;17.60;34.20;;;;;;10450021;28;20233;-73
2023/05/24 10:06:18;;;;;;;5.50;3.57;;;17.70;33.60;;;;;;10440066;28;20221;-72
2023/05/24 10:11:21;;;;;;;5.03;3.70;;;17.80;33.00;;;;;;10448588;28;20243;-73
2023/05/24 10:16:25;;;;;;;7.57;3.87;;;17.80;33.10;;;;;;10446498;28;20659;-73
2023/05/24 10:21:32;;;;;;;7.40;4.20;;;17.90;33.30;;;;;;10447544;28;20233;-73
2023/05/24 10:26:38;;;;;;;6.00;4.30;;;17.90;32.90;;;;;;10442634;28;20787;-73
2023/05/24 10:31:42;;;;;;;6.00;4.40;;;17.90;32.60;;;;;;10448482;28;20229;-72
2023/05/24 10:36:47;;;;;;;5.83;3.87;;;18.00;32.80;;;;;;10443504;28;20240;-72
2023/05/24 10:41:51;;;;;;;6.53;3.80;;;18.00;32.70;;;;;;10448413;28;20250;-72
2023/05/24 10:47:11;;;;;;;6.93;3.90;;;18.10;32.60;;;;;;10447320;28;20770;-72
2023/05/24 10:52:15;;;;;;;5.47;3.57;;;18.20;32.30;;;;;;10445697;28;20304;-72
2023/05/24 10:57:24;;;;;;;5.73;3.80;;;18.30;32.70;;;;;;10442760;28;20255;-72
2023/05/24 11:02:28;;;;;;;6.30;3.97;;;18.30;31.80;;;;;;10436637;28;20697;-72
2023/05/24 11:07:41;;;;;;;6.33;3.63;;;18.40;32.50;;;;;;10437699;28;20233;-72
2023/05/24 11:12:45;;;;;;;9.03;4.30;;;18.40;32.10;;;;;;10435934;28;20339;-72
2023/05/24 11:18:16;;;;;;;7.20;3.83;;;18.50;32.60;;;;;;10436751;28;20807;-72
2023/05/24 11:23:21;;;;;;;6.57;3.80;;;18.60;31.80;;;;;;10438617;28;20926;-72
2023/05/24 11:28:24;;;;;;;7.43;3.83;;;18.70;32.00;;;;;;10426624;28;20319;-72
2023/05/24 11:33:27;;;;;;;5.90;4.07;;;18.80;32.30;;;;;;10435569;28;20224;-73
2023/05/24 11:38:35;;;;;;;8.77;4.03;;;18.90;32.10;;;;;;10435962;28;20237;-74
2023/05/24 11:43:40;;;;;;;6.97;4.03;;;19.00;31.60;;;;;;10434044;28;20237;-72
2023/05/24 11:48:44;;;;;;;6.70;4.10;;;19.20;32.10;;;;;;10438475;28;20233;-72
2023/05/24 11:53:50;;;;;;;9.13;4.17;;;19.20;31.70;;;;;;10437207;28;20227;-72
2023/05/24 11:59:04;;;;;;;6.73;4.30;;;19.30;31.30;;;;;;10440564;28;20237;-72
2023/05/24 12:04:09;;;;;;;4.70;4.07;;;19.30;30.80;;;;;;10437374;28;20231;-72
2023/05/24 12:09:15;;;;;;;6.47;4.10;;;19.40;30.90;;;;;;10433505;28;20233;-72
2023/05/24 12:14:20;;;;;;;7.17;3.90;;;19.40;30.60;;;;;;10434423;28;20589;-72
2023/05/24 12:19:26;;;;;;;6.13;3.90;;;19.40;31.00;;;;;;10429209;28;20232;-72
2023/05/24 12:24:34;;;;;;;6.23;3.93;;;19.50;30.60;;;;;;10435749;28;20217;-72
2023/05/24 12:29:39;;;;;;;7.10;3.87;;;19.60;30.10;;;;;;10428029;28;20601;-72
2023/05/24 12:34:44;;;;;;;7.67;3.93;;;19.50;30.10;;;;;;10443264;28;20286;-72
2023/05/24 12:39:49;;;;;;;7.37;3.83;;;19.70;30.40;;;;;;10437367;28;20794;-71
2023/05/24 12:44:56;;;;;;;8.50;4.03;;;19.70;30.10;;;;;;10448260;28;20268;-73
2023/05/24 12:49:59;;;;;;;77.77;13.87;;;19.80;30.30;;;;;;10447629;28;20245;-71
2023/05/24 12:55:05;;;;;;;8.57;4.87;;;19.90;30.10;;;;;;10447954;28;20233;-71
2023/05/24 13:00:10;;;;;;;5.77;3.87;;;19.90;29.20;;;;;;10448434;28;20237;-72
2023/05/24 13:05:14;;;;;;;7.80;3.63;;;20.00;29.50;;;;;;10449852;28;20232;-73
2023/05/24 13:10:19;;;;;;;5.90;3.37;;;20.00;29.60;;;;;;10452570;28;20227;-72
2023/05/24 13:15:23;;;;;;;4.93;2.70;;;20.00;29.20;;;;;;10450606;28;20247;-73
2023/05/24 13:20:26;;;;;;;5.80;3.30;;;20.20;29.70;;;;;;10456478;28;20228;-73
2023/05/24 13:25:31;;;;;;;3.93;2.73;;;20.20;29.50;;;;;;10447205;28;20313;-73
2023/05/24 13:30:35;;;;;;;5.63;3.10;;;20.30;29.20;;;;;;10445519;28;20233;-73
2023/05/24 13:35:38;;;;;;;5.97;3.10;;;20.50;28.80;;;;;;10444105;28;20229;-73
2023/05/24 13:40:43;;;;;;;5.47;3.33;;;20.50;28.30;;;;;;10453185;28;20878;-73
2023/05/24 13:45:46;;;;;;;4.07;2.33;;;20.40;27.60;;;;;;10450782;28;20967;-73
2023/05/24 13:50:50;;;;;;;4.13;2.53;;;20.40;28.20;;;;;;10441921;28;20236;-72
2023/05/24 13:55:55;;;;;;;6.17;2.90;;;20.40;27.80;;;;;;10451166;28;20328;-74
2023/05/24 14:00:58;;;;;;;5.10;2.60;;;20.50;27.40;;;;;;10446801;28;20650;-73
2023/05/24 14:06:01;;;;;;;4.27;2.60;;;20.40;27.70;;;;;;10445268;28;20312;-74
2023/05/24 14:11:06;;;;;;;3.97;2.30;;;20.40;27.40;;;;;;10448794;28;20864;-74
2023/05/24 14:16:10;;;;;;;2.83;2.40;;;20.40;27.00;;;;;;10450467;28;20339;-73
2023/05/24 14:21:15;;;;;;;4.07;2.40;;;20.40;26.70;;;;;;10450049;28;20294;-73
2023/05/24 14:26:20;;;;;;;3.33;2.53;;;20.50;27.30;;;;;;10444787;28;20244;-73
2023/05/24 14:31:24;;;;;;;3.77;2.60;;;20.60;26.50;;;;;;10448642;28;20240;-74
2023/05/24 14:36:30;;;;;;;3.70;2.53;;;20.70;26.90;;;;;;10453416;28;20225;-73
2023/05/24 14:41:35;;;;;;;5.40;3.30;;;20.70;26.70;;;;;;10395662;28;20241;-74
2023/05/24 14:46:40;;;;;;;4.43;3.27;;;20.70;26.50;;;;;;10438871;28;20229;-74
2023/05/24 14:51:47;;;;;;;4.23;3.07;;;20.70;26.90;;;;;;10446651;28;20232;-74
2023/05/24 14:56:52;;;;;;;4.83;3.20;;;20.60;26.80;;;;;;10448068;28;20315;-74
2023/05/24 15:01:56;;;;;;;4.30;3.07;;;20.60;26.90;;;;;;10446359;28;20235;-74
2023/05/24 15:06:59;;;;;;;5.20;3.40;;;20.50;26.90;;;;;;10442923;28;20264;-74
2023/05/24 15:12:06;;;;;;;5.47;3.33;;;20.40;27.20;;;;;;10449286;28;20653;-74
2023/05/24 15:17:10;;;;;;;7.27;3.67;;;20.30;26.50;;;;;;10447984;28;20311;-74
2023/05/24 15:22:13;;;;;;;6.43;3.33;;;20.30;27.00;;;;;;10446326;28;20225;-74
2023/05/24 15:27:17;;;;;;;4.83;3.20;;;20.20;26.90;;;;;;10440805;28;20346;-74
2023/05/24 15:32:21;;;;;;;6.13;3.53;;;20.20;26.70;;;;;;10447735;28;20709;-74
2023/05/24 15:37:24;;;;;;;5.07;3.67;;;20.20;26.80;;;;;;10447443;28;21080;-73
2023/05/24 15:42:29;;;;;;;4.83;3.27;;;20.20;27.10;;;;;;10450651;28;20224;-73
2023/05/24 15:47:36;;;;;;;5.97;3.67;;;20.10;26.20;;;;;;10446370;28;20311;-74
2023/05/24 15:52:40;;;;;;;4.70;3.30;;;20.10;27.00;;;;;;10445423;28;20261;-72
2023/05/24 15:57:44;;;;;;;4.80;3.50;;;20.10;27.20;;;;;;10435979;28;20312;-73
2023/05/24 16:02:47;;;;;;;4.30;3.20;;;20.20;26.70;;;;;;10441482;28;20233;-73
2023/05/24 16:07:51;;;;;;;5.07;3.53;;;20.20;27.10;;;;;;10437772;28;20236;-73
2023/05/24 16:12:56;;;;;;;5.47;4.20;;;20.30;27.10;;;;;;10454497;28;20340;-73
2023/05/24 16:17:59;;;;;;;6.27;4.00;;;20.30;26.90;;;;;;10453332;28;20260;-73
2023/05/24 16:23:03;;;;;;;5.87;4.27;;;20.30;27.10;;;;;;10452699;28;20229;-73
2023/05/24 16:28:07;;;;;;;5.70;3.90;;;20.40;27.20;;;;;;10445995;28;20259;-73
2023/05/24 16:33:10;;;;;;;5.30;4.10;;;20.30;26.70;;;;;;10447540;28;20331;-73
2023/05/24 16:38:14;;;;;;;5.87;4.27;;;20.30;27.00;;;;;;10450148;28;20250;-74
2023/05/24 16:43:18;;;;;;;6.47;4.10;;;20.40;27.50;;;;;;10453952;28;20231;-73
2023/05/24 16:48:26;;;;;;;5.50;3.83;;;20.40;27.50;;;;;;10453545;28;20330;-73
2023/05/24 16:53:30;;;;;;;5.60;4.17;;;20.30;27.50;;;;;;10456167;28;20327;-73
2023/05/24 16:58:36;;;;;;;7.07;3.73;;;20.30;27.50;;;;;;10449562;28;20291;-73
2023/05/24 17:03:39;;;;;;;7.63;3.63;;;20.30;27.70;;;;;;10449636;28;20597;-73
2023/05/24 17:08:43;;;;;;;6.10;3.70;;;20.20;27.80;;;;;;10445749;28;20646;-73
2023/05/24 17:13:47;;;;;;;5.20;3.63;;;20.10;27.70;;;;;;10455688;28;20235;-73
2023/05/24 17:18:50;;;;;;;5.40;3.50;;;20.00;27.60;;;;;;10445953;28;20559;-73
2023/05/24 17:23:55;;;;;;;3.90;3.27;;;20.00;28.00;;;;;;10450429;28;20240;-72
2023/05/24 17:29:00;;;;;;;6.03;3.37;;;19.90;28.00;;;;;;10442032;28;20268;-73
2023/05/24 17:34:03;;;;;;;6.17;3.50;;;19.90;27.90;;;;;;10450822;28;20231;-73
2023/05/24 17:39:06;;;;;;;4.97;3.10;;;19.90;27.80;;;;;;10448711;28;20855;-73
2023/05/24 17:44:11;;;;;;;4.73;3.20;;;19.90;27.80;;;;;;10452750;28;20231;-73
2023/05/24 17:49:15;;;;;;;6.90;3.30;;;19.80;28.00;;;;;;10454679;28;20319;-73
2023/05/24 17:54:18;;;;;;;6.33;3.40;;;19.60;27.90;;;;;;10441702;28;20410;-73
2023/05/24 17:59:23;;;;;;;8.77;3.47;;;19.50;28.00;;;;;;10449252;28;20304;-73
2023/05/24 18:04:26;;;;;;;9.27;3.27;;;19.40;27.90;;;;;;10443618;28;20263;-73
2023/05/24 18:09:29;;;;;;;4.10;2.97;;;19.30;27.80;;;;;;10442539;28;20256;-73
2023/05/24 18:14:34;;;;;;;6.17;3.33;;;19.20;27.70;;;;;;10442881;28;20224;-73
2023/05/24 18:19:37;;;;;;;6.03;3.07;;;19.00;27.70;;;;;;10438619;28;20237;-73
2023/05/24 18:24:40;;;;;;;3.73;2.77;;;18.90;27.80;;;;;;10435562;28;20237;-73
2023/05/24 18:29:45;;;;;;;5.27;3.10;;;18.90;27.80;;;;;;10433080;28;20638;-73
2023/05/24 18:34:48;;;;;;;5.77;3.20;;;18.70;28.40;;;;;;10435345;28;20252;-73
2023/05/24 18:39:51;;;;;;;3.67;2.83;;;18.70;27.80;;;;;;10433467;28;20237;-73
2023/05/24 18:44:56;;;;;;;5.07;3.37;;;18.60;27.90;;;;;;10435071;28;20262;-74
2023/05/24 18:49:59;;;;;;;6.83;3.30;;;18.50;27.90;;;;;;10440311;28;20224;-74
2023/05/24 18:55:05;;;;;;;5.40;3.10;;;18.50;28.00;;;;;;10438641;28;20316;-74
2023/05/24 19:00:12;;;;;;;6.10;3.30;;;18.40;28.10;;;;;;10432791;28;20240;-74
2023/05/24 19:05:16;;;;;;;4.77;3.00;;;18.40;28.10;;;;;;10445474;28;20236;-73
2023/05/24 19:10:19;;;;;;;4.73;3.00;;;18.30;28.20;;;;;;10446138;28;20300;-73
2023/05/24 19:15:24;;;;;;;4.90;2.97;;;18.30;28.30;;;;;;10439868;28;20847;-73
2023/05/24 19:20:27;;;;;;;6.07;3.20;;;18.30;28.50;;;;;;10440318;28;20228;-73
2023/05/24 19:25:31;;;;;;;5.60;3.53;;;18.30;28.40;;;;;;10443228;28;20259;-74
2023/05/24 19:30:36;;;;;;;3.13;2.60;;;18.30;28.50;;;;;;10426447;28;20316;-74
2023/05/24 19:35:39;;;;;;;3.83;2.90;;;18.30;28.70;;;;;;10441391;28;20221;-73
2023/05/24 19:40:43;;;;;;;3.53;2.73;;;18.30;28.70;;;;;;10449363;28;20306;-74
2023/05/24 19:45:50;;;;;;;3.93;2.90;;;18.30;28.70;;;;;;10449184;28;20235;-75
2023/05/24 19:50:54;;;;;;;4.40;2.90;;;18.30;28.60;;;;;;10464200;28;20233;-74
2023/05/24 19:55:57;;;;;;;6.83;3.13;;;18.20;28.30;;;;;;10459745;28;20709;-72
2023/05/24 20:01:02;;;;;;;4.97;2.93;;;18.10;28.10;;;;;;10455806;28;20228;-72
2023/05/24 20:06:05;;;;;;;4.13;3.23;;;18.00;28.00;;;;;;10455279;28;20232;-72
2023/05/24 20:11:09;;;;;;;5.73;2.93;;;17.90;28.00;;;;;;10458312;28;20244;-72
2023/05/24 20:16:13;;;;;;;3.60;2.70;;;17.80;28.10;;;;;;10457397;28;20235;-71
2023/05/24 20:21:18;;;;;;;4.57;3.07;;;17.80;28.10;;;;;;10457401;28;20225;-72
2023/05/24 20:26:21;;;;;;;3.93;2.50;;;17.70;28.00;;;;;;10457658;28;20236;-72
2023/05/24 20:31:26;;;;;;;4.67;2.67;;;17.60;28.10;;;;;;10457592;28;20697;-72
2023/05/24 20:36:30;;;;;;;4.93;2.87;;;17.60;28.10;;;;;;10456990;28;20232;-72
2023/05/24 20:41:34;;;;;;;5.03;2.80;;;17.60;28.10;;;;;;10456498;28;20294;-72
2023/05/24 20:46:38;;;;;;;5.37;3.27;;;17.50;28.10;;;;;;10457401;28;20236;-72
2023/05/24 20:51:42;;;;;;;4.23;3.10;;;17.50;28.20;;;;;;10456028;28;20240;-72
2023/05/24 20:56:45;;;;;;;6.57;2.93;;;17.40;28.10;;;;;;10450994;28;20225;-72
2023/05/24 21:01:49;;;;;;;5.43;2.83;;;17.40;28.10;;;;;;10449542;28;20479;-72
2023/05/24 21:06:53;;;;;;;4.90;2.90;;;17.30;28.20;;;;;;10449381;28;20232;-72
2023/05/24 21:11:57;;;;;;;5.17;2.70;;;17.30;28.30;;;;;;10449340;28;20981;-72
2023/05/24 21:17:01;;;;;;;5.73;2.93;;;17.20;28.40;;;;;;10449035;28;20769;-72
2023/05/24 21:22:05;;;;;;;5.17;3.00;;;17.20;28.40;;;;;;10448221;28;20228;-72
2023/05/24 21:27:08;;;;;;;4.07;2.80;;;17.20;28.40;;;;;;10448809;28;20264;-72
2023/05/24 21:32:12;;;;;;;3.53;2.50;;;17.20;28.40;;;;;;10448849;28;20235;-72
2023/05/24 21:37:16;;;;;;;4.53;2.90;;;17.20;28.50;;;;;;10448018;28;20236;-72
2023/05/24 21:42:19;;;;;;;4.93;2.87;;;17.20;28.60;;;;;;10450067;28;20311;-72
2023/05/24 21:47:24;;;;;;;4.37;2.93;;;17.20;28.60;;;;;;10450458;28;20259;-72
2023/05/24 21:52:27;;;;;;;5.37;3.00;;;17.10;28.50;;;;;;10448766;28;20732;-72
2023/05/24 21:57:30;;;;;;;6.07;3.03;;;17.20;28.50;;;;;;10450148;28;20232;-72
2023/05/24 22:02:35;;;;;;;4.30;2.70;;;17.10;28.40;;;;;;10449771;28;20300;-73
2023/05/24 22:07:39;;;;;;;3.60;2.63;;;17.10;28.60;;;;;;10449494;28;20587;-70
2023/05/24 22:12:42;;;;;;;5.87;2.77;;;17.10;28.50;;;;;;10449727;28;20239;-73
2023/05/24 22:17:46;;;;;;;4.77;2.67;;;17.10;28.60;;;;;;10449510;28;20315;-73
2023/05/24 22:22:52;;;;;;;3.70;2.60;;;17.10;28.70;;;;;;10449176;28;20233;-73
2023/05/24 22:27:55;;;;;;;4.43;2.87;;;17.10;28.80;;;;;;10448984;28;20260;-73
2023/05/24 22:33:00;;;;;;;3.87;3.27;;;17.10;28.90;;;;;;10448888;28;20240;-71
2023/05/24 22:38:04;;;;;;;7.70;3.20;;;17.00;28.70;;;;;;10447532;28;20749;-71
2023/05/24 22:43:07;;;;;;;4.67;2.77;;;17.00;29.30;;;;;;10446259;28;20723;-71
2023/05/24 22:48:11;;;;;;;2.30;2.10;;;17.00;28.80;;;;;;10446255;28;20235;-71
2023/05/24 22:53:15;;;;;;;4.80;2.77;;;16.90;28.90;;;;;;10447683;28;20248;-71
2023/05/24 22:58:21;;;;;;;3.23;2.43;;;16.90;28.90;;;;;;10446717;28;20721;-71
2023/05/24 23:03:26;;;;;;;3.47;2.43;;;16.90;29.10;;;;;;10446642;28;20233;-72
2023/05/24 23:08:30;;;;;;;3.80;3.07;;;16.90;29.10;;;;;;10446640;28;20233;-71
2023/05/24 23:13:34;;;;;;;5.00;3.10;;;16.90;29.10;;;;;;10446264;28;20534;-72
2023/05/24 23:18:41;;;;;;;4.50;2.77;;;16.80;28.90;;;;;;10445700;28;20241;-72
2023/05/24 23:23:44;;;;;;;4.43;2.70;;;16.80;29.10;;;;;;10446093;28;20320;-72
2023/05/24 23:28:48;;;;;;;3.43;2.60;;;16.80;29.00;;;;;;10445417;28;20233;-72
2023/05/24 23:33:52;;;;;;;3.47;2.63;;;16.80;29.20;;;;;;10446101;28;20228;-71
2023/05/24 23:38:56;;;;;;;7.97;3.57;;;16.70;29.30;;;;;;10445796;28;20255;-72
2023/05/24 23:43:59;;;;;;;5.17;3.07;;;16.70;29.10;;;;;;10446420;28;20242;-72
2023/05/24 23:49:03;;;;;;;5.47;2.70;;;16.70;29.20;;;;;;10445165;28;20224;-71
2023/05/24 23:54:06;;;;;;;4.83;3.20;;;16.60;29.50;;;;;;10446208;28;20319;-71
2023/05/24 23:59:10;;;;;;;6.80;3.23;;;16.60;29.60;;;;;;10446052;28;20297;-72
